createdAt,value
2022-09-15T00:01:10.764Z,84.02
2022-09-15T00:03:39.038Z,84.66
2022-09-15T00:06:07.339Z,84.24
2022-09-15T00:08:34.548Z,83.98
2022-09-15T00:11:18.820Z,83.81
2022-09-15T00:13:46.458Z,83.69
2022-09-15T00:16:15.744Z,83.43
2022-09-15T00:18:44.717Z,81.32
2022-09-15T00:21:17.747Z,83.66
2022-09-15T00:23:45.602Z,84.06
2022-09-15T00:26:18.034Z,85.08
2022-09-15T00:28:45.877Z,84.86
2022-09-15T00:31:22.936Z,84.38
2022-09-15T00:33:53.762Z,85.24
2022-09-15T00:36:22.367Z,85.49
2022-09-15T00:38:49.492Z,85.59
2022-09-15T00:41:20.705Z,86.85
2022-09-15T00:43:58.082Z,88.11
2022-09-15T00:46:31.951Z,87.59
2022-09-15T00:49:20.190Z,87.62
2022-09-15T00:52:03.403Z,87.94
2022-09-15T00:54:48.532Z,86.65
2022-09-15T00:58:07.527Z,85.87
2022-09-15T01:00:35.253Z,86.38
2022-09-15T01:03:03.155Z,86.54
2022-09-15T01:05:46.129Z,87.08
2022-09-15T01:08:34.476Z,86.85
2022-09-15T01:11:02.670Z,86.25
2022-09-15T01:13:29.810Z,86.21
2022-09-15T01:16:31.574Z,87.17
2022-09-15T01:19:52.542Z,87.00
2022-09-15T01:23:06.314Z,87.06
2022-09-15T01:26:47.071Z,86.46
2022-09-15T01:29:51.056Z,86.08
2022-09-15T01:32:56.007Z,87.63
2022-09-15T01:35:45.744Z,86.97
2022-09-15T01:38:36.546Z,87.06
2022-09-15T01:41:24.864Z,88.02
2022-09-15T01:44:21.471Z,86.77
2022-09-15T01:47:00.442Z,88.12
2022-09-15T01:49:46.618Z,88.09
2022-09-15T01:52:17.889Z,87.51
2022-09-15T01:54:51.235Z,86.45
2022-09-15T01:57:21.878Z,87.73
2022-09-15T01:59:51.715Z,87.42
2022-09-15T02:02:43.975Z,87.58
2022-09-15T02:05:25.627Z,87.44
2022-09-15T02:08:12.855Z,88.19
2022-09-15T02:11:06.840Z,89.22
2022-09-15T02:14:14.083Z,87.92
2022-09-15T02:16:48.793Z,88.42
2022-09-15T02:19:47.037Z,88.23
2022-09-15T02:22:33.115Z,89.03
2022-09-15T02:25:13.056Z,87.68
2022-09-15T02:27:54.979Z,88.19
2022-09-15T02:30:22.753Z,86.69
2022-09-15T02:32:58.104Z,87.52
2022-09-15T02:35:28.947Z,87.19
2022-09-15T02:37:57.989Z,89.47
2022-09-15T02:40:25.047Z,89.25
2022-09-15T02:42:56.857Z,88.87
2022-09-15T02:45:27.798Z,89.27
2022-09-15T02:47:54.875Z,88.58
2022-09-15T02:50:21.909Z,88.46
2022-09-15T02:52:52.218Z,89.64
2022-09-15T02:55:19.154Z,89.10
2022-09-15T02:57:46.090Z,88.93
2022-09-15T03:00:16.750Z,87.85
2022-09-15T03:02:50.040Z,88.74
2022-09-15T03:05:22.602Z,89.12
2022-09-15T03:07:50.186Z,88.83
2022-09-15T03:10:17.930Z,89.01
2022-09-15T03:12:49.413Z,89.19
2022-09-15T03:15:24.590Z,86.17
2022-09-15T03:17:52.605Z,89.17
2022-09-15T03:20:30.249Z,88.00
2022-09-15T03:22:57.232Z,88.61
2022-09-15T03:25:26.847Z,89.27
2022-09-15T03:27:54.030Z,88.34
2022-09-15T03:30:21.174Z,89.03
2022-09-15T03:32:48.679Z,88.47
2022-09-15T03:35:15.700Z,87.75
2022-09-15T03:37:42.887Z,88.30
2022-09-15T03:40:10.809Z,88.70
2022-09-15T03:42:37.835Z,87.41
2022-09-15T03:45:05.373Z,87.92
2022-09-15T03:47:35.338Z,88.51
2022-09-15T03:50:02.463Z,88.66
2022-09-15T03:52:32.055Z,88.37
2022-09-15T03:54:59.286Z,88.84
2022-09-15T03:57:26.260Z,87.84
2022-09-15T03:59:53.481Z,88.18
2022-09-15T04:02:20.954Z,87.90
2022-09-15T04:04:49.434Z,88.39
2022-09-15T04:07:16.385Z,88.50
2022-09-15T04:09:43.313Z,89.62
2022-09-15T04:12:10.946Z,89.16
2022-09-15T04:14:37.959Z,87.88
2022-09-15T04:17:04.895Z,88.97
2022-09-15T04:19:32.063Z,88.98
2022-09-15T04:21:59.079Z,88.84
2022-09-15T04:24:26.445Z,89.90
2022-09-15T04:26:53.473Z,89.19
2022-09-15T04:29:20.531Z,89.96
2022-09-15T04:31:48.116Z,89.99
2022-09-15T04:34:18.396Z,89.53
2022-09-15T04:36:46.517Z,88.45
2022-09-15T04:39:14.032Z,88.75
2022-09-15T04:41:41.093Z,88.11
2022-09-15T04:44:08.777Z,88.26
2022-09-15T04:46:35.924Z,88.25
2022-09-15T04:49:03.546Z,87.43
2022-09-15T04:51:30.932Z,87.94
2022-09-15T04:53:59.655Z,87.00
2022-09-15T04:56:27.411Z,87.18
2022-09-15T04:59:04.010Z,86.41
2022-09-15T05:01:35.211Z,86.65
2022-09-15T05:04:04.408Z,86.59
2022-09-15T05:06:31.698Z,87.50
2022-09-15T05:08:58.815Z,87.92
2022-09-15T05:11:27.169Z,88.00
2022-09-15T05:13:54.847Z,88.01
2022-09-15T05:16:29.447Z,87.52
2022-09-15T05:19:03.042Z,86.53
2022-09-15T05:21:30.279Z,86.63
2022-09-15T05:23:57.712Z,86.22
2022-09-15T05:26:28.717Z,87.20
2022-09-15T05:28:57.347Z,86.72
2022-09-15T05:31:31.423Z,87.24
2022-09-15T05:34:02.930Z,86.58
2022-09-15T05:36:30.869Z,86.17
2022-09-15T05:38:58.387Z,86.37
2022-09-15T05:41:27.722Z,86.88
2022-09-15T05:43:57.387Z,84.18
2022-09-15T05:46:26.496Z,86.10
2022-09-15T05:48:56.291Z,86.42
2022-09-15T05:51:24.421Z,85.94
2022-09-15T05:53:51.545Z,85.19
2022-09-15T05:56:20.061Z,85.31
2022-09-15T05:58:49.315Z,85.36
2022-09-15T06:01:22.370Z,84.96
2022-09-15T06:03:50.096Z,83.41
2022-09-15T06:06:17.839Z,83.77
2022-09-15T06:08:58.049Z,84.99
2022-09-15T06:11:31.161Z,84.32
2022-09-15T06:14:03.648Z,84.25
2022-09-15T06:16:35.048Z,83.97
2022-09-15T06:19:02.171Z,85.77
2022-09-15T06:21:31.724Z,85.44
2022-09-15T06:24:06.994Z,84.97
2022-09-15T06:26:34.828Z,83.81
2022-09-15T06:29:05.107Z,84.97
2022-09-15T06:31:34.394Z,81.82
2022-09-15T06:34:03.748Z,84.14
2022-09-15T06:36:31.702Z,83.56
2022-09-15T06:38:59.513Z,83.57
2022-09-15T06:41:38.174Z,82.92
2022-09-15T06:44:14.918Z,83.81
2022-09-15T06:46:41.896Z,82.41
2022-09-15T06:49:09.205Z,83.21
2022-09-15T06:51:36.326Z,83.20
2022-09-15T06:54:05.422Z,83.83
2022-09-15T06:56:37.665Z,82.89
2022-09-15T06:59:05.882Z,82.35
2022-09-15T07:01:33.437Z,82.21
2022-09-15T07:04:04.170Z,83.25
2022-09-15T07:06:33.540Z,82.44
2022-09-15T07:09:02.389Z,83.15
2022-09-15T07:11:30.778Z,83.01
2022-09-15T07:13:58.072Z,81.50
2022-09-15T07:16:28.092Z,82.55
2022-09-15T07:18:57.215Z,82.30
2022-09-15T07:21:24.725Z,82.62
2022-09-15T07:23:51.982Z,83.27
2022-09-15T07:26:29.594Z,82.61
2022-09-15T07:29:06.781Z,81.35
2022-09-15T07:31:37.564Z,81.62
2022-09-15T07:34:05.916Z,81.37
2022-09-15T07:36:33.241Z,80.16
2022-09-15T07:39:00.243Z,81.57
2022-09-15T07:41:31.029Z,80.78
2022-09-15T07:44:02.923Z,80.53
2022-09-15T07:46:32.566Z,80.98
2022-09-15T07:49:00.886Z,81.91
2022-09-15T07:51:27.855Z,81.08
2022-09-15T07:53:55.205Z,82.27
2022-09-15T07:56:24.554Z,82.32
2022-09-15T07:58:52.395Z,82.55
2022-09-15T08:01:22.340Z,81.95
2022-09-15T08:03:52.549Z,82.07
2022-09-15T08:06:29.874Z,81.34
2022-09-15T08:09:00.686Z,80.57
2022-09-15T08:11:29.378Z,80.62
2022-09-15T08:13:56.498Z,79.49
2022-09-15T08:16:25.085Z,78.31
2022-09-15T08:18:54.074Z,77.49
2022-09-15T08:21:22.284Z,77.26
2022-09-15T08:24:02.354Z,77.42
2022-09-15T08:26:30.334Z,78.32
2022-09-15T08:28:58.467Z,77.96
2022-09-15T08:31:25.627Z,77.46
2022-09-15T08:33:55.492Z,77.49
2022-09-15T08:36:22.992Z,77.41
2022-09-15T08:38:50.100Z,76.66
2022-09-15T08:41:46.670Z,75.68
2022-09-15T08:44:44.258Z,75.73
2022-09-15T08:47:41.847Z,74.93
2022-09-15T08:50:43.387Z,74.02
2022-09-15T08:53:19.842Z,74.03
2022-09-15T08:56:05.421Z,74.97
2022-09-15T08:58:37.699Z,75.38
2022-09-15T09:01:32.881Z,74.17
2022-09-15T09:04:30.302Z,74.96
2022-09-15T09:07:36.196Z,72.99
2022-09-15T09:10:19.939Z,74.21
2022-09-15T09:13:05.390Z,71.27
2022-09-15T09:15:57.719Z,71.51
2022-09-15T09:19:08.065Z,72.48
2022-09-15T09:21:57.841Z,73.81
2022-09-15T09:24:41.220Z,72.30
2022-09-15T09:27:20.514Z,71.77
2022-09-15T09:30:07.449Z,71.14
2022-09-15T09:33:38.732Z,70.47
2022-09-15T09:36:06.111Z,69.33
2022-09-15T09:38:41.748Z,67.19
2022-09-15T09:41:19.914Z,67.40
2022-09-15T09:43:49.276Z,65.63
2022-09-15T09:46:19.461Z,65.84
2022-09-15T09:49:18.655Z,66.14
2022-09-15T09:51:57.354Z,66.10
2022-09-15T09:54:29.962Z,63.77
2022-09-15T09:57:31.752Z,65.60
2022-09-15T10:00:01.914Z,66.08
2022-09-15T10:02:29.296Z,64.99
2022-09-15T10:05:20.280Z,64.51
2022-09-15T10:07:50.111Z,63.48
2022-09-15T10:10:28.612Z,63.03
2022-09-15T10:12:56.791Z,64.26
2022-09-15T10:15:35.367Z,62.64
2022-09-15T10:18:05.371Z,64.94
2022-09-15T10:20:51.423Z,66.05
2022-09-15T10:23:18.872Z,63.15
2022-09-15T10:26:01.594Z,65.23
2022-09-15T10:28:29.097Z,64.82
2022-09-15T10:31:32.128Z,64.01
2022-09-15T10:34:01.300Z,62.09
2022-09-15T10:36:32.320Z,62.55
2022-09-15T10:39:48.459Z,60.06
2022-09-15T10:43:21.106Z,59.34
2022-09-15T10:46:09.159Z,56.70
2022-09-15T10:49:16.037Z,55.03
2022-09-15T10:52:31.819Z,55.29
2022-09-15T10:55:53.251Z,55.28
2022-09-15T10:58:46.897Z,53.89
2022-09-15T11:01:29.573Z,52.77
2022-09-15T11:04:30.015Z,53.53
2022-09-15T11:08:10.897Z,53.33
2022-09-15T11:11:05.227Z,53.72
2022-09-15T11:13:51.734Z,53.32
2022-09-15T11:17:11.113Z,53.10
2022-09-15T11:19:50.323Z,53.28
2022-09-15T11:22:28.791Z,53.30
2022-09-15T11:25:20.322Z,54.26
2022-09-15T11:28:33.058Z,55.51
2022-09-15T11:31:15.362Z,55.22
2022-09-15T11:33:58.589Z,55.14
2022-09-15T11:37:14.269Z,55.39
2022-09-15T11:40:21.976Z,57.39
2022-09-15T11:43:13.321Z,55.44
2022-09-15T11:45:51.874Z,54.95
2022-09-15T11:48:40.097Z,53.90
2022-09-15T11:51:07.794Z,54.58
2022-09-15T11:53:50.894Z,55.53
2022-09-15T11:56:42.022Z,55.17
2022-09-15T11:59:46.890Z,55.49
2022-09-15T12:02:51.656Z,57.90
2022-09-15T12:05:30.038Z,58.11
2022-09-15T12:08:23.949Z,58.14
2022-09-15T12:10:56.003Z,58.10
2022-09-15T12:13:25.668Z,58.45
2022-09-15T12:15:53.690Z,58.51
2022-09-15T12:18:41.027Z,63.47
2022-09-15T12:21:38.912Z,63.79
2022-09-15T12:24:38.173Z,65.02
2022-09-15T12:27:05.151Z,65.39
2022-09-15T12:29:42.602Z,62.38
2022-09-15T12:32:31.920Z,60.64
2022-09-15T12:35:19.997Z,59.50
2022-09-15T12:37:59.042Z,59.47
2022-09-15T12:40:40.018Z,57.08
2022-09-15T12:43:13.386Z,56.59
2022-09-15T12:46:00.090Z,54.17
2022-09-15T12:48:35.156Z,54.81
2022-09-15T12:51:10.292Z,54.32
2022-09-15T12:54:00.922Z,52.44
2022-09-15T12:56:31.935Z,51.99
2022-09-15T12:59:11.652Z,50.56
2022-09-15T13:01:49.708Z,49.52
2022-09-15T13:04:43.546Z,47.29
2022-09-15T13:07:34.464Z,48.18
2022-09-15T13:10:41.292Z,46.27
2022-09-15T13:13:47.490Z,46.95
2022-09-15T13:16:43.726Z,47.73
2022-09-15T13:19:46.473Z,47.87
2022-09-15T13:22:35.625Z,51.56
2022-09-15T13:25:13.679Z,50.17
2022-09-15T13:27:54.150Z,49.52
2022-09-15T13:30:21.265Z,49.03
2022-09-15T13:40:12.896Z,49.47
2022-09-15T13:43:10.903Z,46.96
2022-09-15T13:46:39.709Z,45.68
2022-09-15T13:50:14.872Z,48.45
2022-09-15T13:53:33.415Z,46.46
2022-09-15T13:56:08.842Z,48.94
2022-09-15T14:01:25.199Z,51.70
2022-09-15T14:04:03.807Z,51.42
2022-09-15T14:06:38.978Z,51.18
2022-09-15T14:09:39.487Z,48.26
2022-09-15T14:12:12.071Z,46.02
2022-09-15T14:14:54.606Z,48.19
2022-09-15T14:17:28.621Z,47.91
2022-09-15T14:20:01.667Z,48.80
2022-09-15T14:22:32.996Z,49.31
2022-09-15T14:25:08.506Z,47.64
2022-09-15T14:27:42.819Z,47.21
2022-09-15T14:30:39.775Z,47.54
2022-09-15T14:33:06.938Z,47.13
2022-09-15T14:35:38.154Z,48.44
2022-09-15T14:38:05.478Z,49.21
2022-09-15T14:40:38.042Z,48.17
2022-09-15T14:43:55.508Z,48.46
2022-09-15T14:46:22.568Z,51.32
2022-09-15T14:48:52.538Z,49.46
2022-09-15T14:51:25.822Z,49.67
2022-09-15T14:53:56.837Z,51.80
2022-09-15T14:56:31.511Z,51.16
2022-09-15T14:59:19.333Z,51.60
2022-09-15T15:02:19.677Z,52.01
2022-09-15T15:05:00.424Z,51.32
2022-09-15T15:07:35.106Z,51.60
2022-09-15T15:10:35.894Z,51.25
2022-09-15T15:13:16.251Z,50.10
2022-09-15T15:15:44.353Z,50.92
2022-09-15T15:18:38.850Z,52.11
2022-09-15T15:21:36.155Z,53.88
2022-09-15T15:24:23.803Z,53.77
2022-09-15T15:26:51.479Z,55.68
2022-09-15T15:29:43.160Z,59.94
2022-09-15T15:32:31.237Z,63.40
2022-09-15T15:35:04.174Z,68.76
2022-09-15T15:37:33.954Z,70.36
2022-09-15T15:40:13.237Z,74.58
2022-09-15T15:43:00.758Z,76.27
2022-09-15T15:45:34.561Z,75.60
2022-09-15T15:48:04.275Z,76.20
2022-09-15T15:50:36.060Z,77.96
2022-09-15T15:53:03.206Z,75.43
2022-09-15T15:55:41.917Z,76.71
2022-09-15T15:58:12.565Z,76.65
2022-09-15T16:00:54.610Z,75.74
2022-09-15T16:03:22.988Z,74.41
2022-09-15T16:05:58.533Z,75.75
2022-09-15T16:08:38.011Z,73.97
2022-09-15T16:11:08.037Z,75.19
2022-09-15T16:13:35.285Z,73.72
2022-09-15T16:16:07.882Z,74.35
2022-09-15T16:18:36.917Z,73.26
2022-09-15T16:21:03.950Z,71.41
2022-09-15T16:23:31.599Z,72.08
2022-09-15T16:26:07.917Z,71.25
2022-09-15T16:28:34.838Z,73.64
2022-09-15T16:31:02.204Z,74.22
2022-09-15T16:33:29.364Z,74.58
2022-09-15T16:36:06.712Z,75.19
2022-09-15T16:38:35.953Z,74.47
2022-09-15T16:41:11.499Z,74.22
2022-09-15T16:43:38.565Z,74.43
2022-09-15T16:46:06.908Z,73.83
2022-09-15T16:48:34.293Z,74.04
2022-09-15T16:51:20.878Z,73.88
2022-09-15T16:53:51.010Z,73.24
2022-09-15T16:56:18.967Z,73.71
2022-09-15T16:58:45.974Z,73.74
2022-09-15T17:01:21.558Z,71.92
2022-09-15T17:03:48.967Z,72.36
2022-09-15T17:06:17.674Z,72.10
2022-09-15T17:08:45.487Z,71.63
2022-09-15T17:11:20.044Z,72.35
2022-09-15T17:13:47.934Z,72.09
2022-09-15T17:16:22.052Z,72.22
2022-09-15T17:18:49.392Z,71.68
2022-09-15T17:21:18.784Z,72.68
2022-09-15T17:23:50.389Z,71.68
2022-09-15T17:26:24.652Z,72.00
2022-09-15T17:28:55.424Z,72.41
2022-09-15T17:31:24.742Z,72.01
2022-09-15T17:33:53.423Z,70.45
2022-09-15T17:36:20.577Z,72.44
2022-09-15T17:38:48.877Z,72.39
2022-09-15T17:41:22.321Z,71.60
2022-09-15T17:43:49.623Z,71.77
2022-09-15T17:46:16.759Z,71.70
2022-09-15T17:48:43.765Z,73.17
2022-09-15T17:51:19.562Z,72.46
2022-09-15T17:53:47.603Z,72.00
2022-09-15T17:56:14.646Z,71.38
2022-09-15T17:58:41.846Z,73.73
2022-09-15T18:01:14.657Z,71.59
2022-09-15T18:03:44.561Z,72.15
2022-09-15T18:06:12.300Z,71.43
2022-09-15T18:08:39.499Z,72.37
2022-09-15T18:11:07.531Z,71.47
2022-09-15T18:13:34.976Z,71.26
2022-09-15T18:16:13.897Z,72.50
2022-09-15T18:18:41.490Z,71.89
2022-09-15T18:21:20.268Z,72.30
2022-09-15T18:23:47.238Z,71.80
2022-09-15T18:26:14.190Z,71.44
2022-09-15T18:28:41.119Z,72.31
2022-09-15T18:31:12.535Z,72.83
2022-09-15T18:33:39.694Z,73.57
2022-09-15T18:36:07.984Z,73.75
2022-09-15T18:38:35.036Z,73.50
2022-09-15T18:41:02.408Z,74.25
2022-09-15T18:43:29.536Z,74.76
2022-09-15T18:46:01.358Z,73.95
2022-09-15T18:48:29.237Z,74.15
2022-09-15T18:50:56.673Z,75.38
2022-09-15T18:53:24.155Z,73.93
2022-09-15T18:55:51.108Z,76.15
2022-09-15T18:58:19.257Z,75.44
2022-09-15T19:00:46.844Z,75.92
2022-09-15T19:03:14.528Z,75.62
2022-09-15T19:05:41.763Z,76.11
2022-09-15T19:08:09.217Z,76.19
2022-09-15T19:10:39.367Z,74.86
2022-09-15T19:13:06.605Z,76.42
2022-09-15T19:15:34.534Z,77.57
2022-09-15T19:18:02.065Z,75.84
2022-09-15T19:20:29.380Z,77.15
2022-09-15T19:22:58.063Z,76.86
2022-09-15T19:25:25.087Z,77.54
2022-09-15T19:27:52.131Z,77.82
2022-09-15T19:30:19.137Z,76.81
2022-09-15T19:32:46.185Z,78.54
2022-09-15T19:35:13.971Z,77.67
2022-09-15T19:37:42.914Z,78.47
2022-09-15T19:40:14.464Z,77.91
2022-09-15T19:42:44.054Z,77.79
2022-09-15T19:45:12.894Z,78.10
2022-09-15T19:47:41.039Z,77.87
2022-09-15T19:50:10.262Z,77.98
2022-09-15T19:52:37.644Z,78.15
2022-09-15T19:55:07.378Z,78.85
2022-09-15T19:57:34.461Z,80.12
2022-09-15T20:00:01.508Z,79.44
2022-09-15T20:02:28.450Z,79.12
2022-09-15T20:04:55.458Z,78.86
2022-09-15T20:07:22.543Z,79.58
2022-09-15T20:09:49.533Z,79.35
2022-09-15T20:12:16.583Z,78.08
2022-09-15T20:14:43.565Z,79.58
2022-09-15T20:17:10.880Z,78.82
2022-09-15T20:19:38.171Z,79.17
2022-09-15T20:22:05.118Z,77.93
2022-09-15T20:24:32.159Z,79.42
2022-09-15T20:26:59.439Z,77.30
2022-09-15T20:29:26.443Z,78.38
2022-09-15T20:31:53.822Z,79.16
2022-09-15T20:34:20.776Z,78.35
2022-09-15T20:36:47.762Z,78.64
2022-09-15T20:39:16.056Z,78.21
2022-09-15T20:41:45.324Z,77.73
2022-09-15T20:44:12.703Z,77.12
2022-09-15T20:46:39.948Z,78.24
2022-09-15T20:49:07.752Z,77.76
2022-09-15T20:51:35.136Z,77.71
2022-09-15T20:54:04.833Z,76.76
2022-09-15T20:56:35.432Z,76.27
2022-09-15T20:59:04.479Z,77.56
2022-09-15T21:01:38.276Z,78.49
2022-09-15T21:04:08.400Z,77.41
2022-09-15T21:06:35.953Z,77.26
2022-09-15T21:09:03.858Z,77.81
2022-09-15T21:11:31.302Z,77.60
2022-09-15T21:13:58.857Z,77.93
2022-09-15T21:16:28.621Z,78.39
2022-09-15T21:18:58.469Z,79.21
2022-09-15T21:21:32.575Z,79.10
2022-09-15T21:24:07.189Z,78.03
2022-09-15T21:26:57.562Z,78.35
2022-09-15T21:29:25.242Z,78.59
2022-09-15T21:31:52.704Z,78.55
2022-09-15T21:34:20.137Z,78.94
2022-09-15T21:36:47.247Z,78.11
2022-09-15T21:39:14.279Z,79.05
2022-09-15T21:41:41.442Z,79.44
2022-09-15T21:44:09.723Z,79.55
2022-09-15T21:46:36.637Z,79.46
2022-09-15T21:49:03.633Z,79.86
2022-09-15T21:51:31.088Z,79.63
2022-09-15T21:54:00.017Z,79.30
2022-09-15T21:56:29.464Z,79.57
2022-09-15T21:58:56.514Z,79.14
2022-09-15T22:01:31.832Z,79.67
2022-09-15T22:04:03.418Z,79.57
2022-09-15T22:06:37.573Z,81.24
2022-09-15T22:09:16.938Z,81.25
2022-09-15T22:11:44.244Z,80.38
2022-09-15T22:14:13.015Z,82.31
2022-09-15T22:16:42.125Z,81.98
2022-09-15T22:19:11.795Z,80.62
2022-09-15T22:21:41.704Z,81.30
2022-09-15T22:24:12.901Z,79.91
2022-09-15T22:26:42.383Z,81.41
2022-09-15T22:29:09.717Z,80.97
2022-09-15T22:31:36.813Z,80.12
2022-09-15T22:34:04.266Z,81.60
2022-09-15T22:36:32.267Z,80.97
2022-09-15T22:39:04.590Z,81.70
2022-09-15T22:41:38.783Z,80.92
2022-09-15T22:44:16.064Z,80.55
2022-09-15T22:46:43.005Z,81.23
2022-09-15T22:49:09.957Z,83.11
2022-09-15T22:51:36.906Z,83.42
2022-09-15T22:54:04.074Z,83.05
2022-09-15T22:56:31.034Z,81.88
2022-09-15T22:58:58.015Z,81.19
2022-09-15T23:01:30.511Z,81.56
2022-09-15T23:04:01.795Z,81.89
2022-09-15T23:06:33.826Z,81.50
2022-09-15T23:09:09.032Z,83.08
2022-09-15T23:11:39.634Z,81.19
2022-09-15T23:14:17.646Z,82.51
2022-09-15T23:16:45.083Z,82.21
2022-09-15T23:19:13.572Z,81.79
2022-09-15T23:21:40.731Z,82.08
2022-09-15T23:24:08.690Z,81.42
2022-09-15T23:26:35.747Z,82.24
2022-09-15T23:29:02.695Z,82.13
2022-09-15T23:31:29.683Z,82.12
2022-09-15T23:33:56.710Z,82.28
2022-09-15T23:36:23.890Z,82.74
2022-09-15T23:38:50.852Z,81.89
2022-09-15T23:41:18.990Z,81.09
2022-09-15T23:43:46.595Z,82.26
2022-09-15T23:46:14.068Z,81.82
2022-09-15T23:48:41.625Z,82.41
2022-09-15T23:51:08.970Z,81.56
2022-09-15T23:53:36.177Z,82.43
2022-09-15T23:56:03.793Z,82.95
2022-09-15T23:58:30.929Z,81.99
